createdAt,value
2018-06-21T02:51:43.285Z,0.00
2018-06-21T02:52:43.238Z,0.00
2018-06-21T02:53:43.216Z,0.00
2018-06-21T02:54:43.195Z,0.00
2018-06-21T02:55:43.175Z,0.00
2018-06-21T02:56:43.153Z,0.00
2018-06-21T02:57:43.130Z,0.00
2018-06-21T02:58:43.110Z,5.63
2018-06-21T02:59:43.104Z,5.63
2018-06-21T03:00:43.069Z,5.63
2018-06-21T03:01:43.048Z,5.63
2018-06-21T03:02:43.026Z,5.63
2018-06-21T03:03:43.014Z,5.63
2018-06-21T03:04:42.986Z,5.63
2018-06-21T03:05:42.967Z,5.63
2018-06-21T03:06:42.946Z,5.63
2018-06-21T03:07:42.925Z,11.25
2018-06-21T03:08:42.907Z,11.25
2018-06-21T03:09:42.890Z,11.25
2018-06-21T03:10:42.866Z,11.25
2018-06-21T03:11:42.846Z,11.25
2018-06-21T03:12:42.827Z,11.25
2018-06-21T03:13:42.804Z,11.25
2018-06-21T03:14:42.785Z,16.88
2018-06-21T03:15:42.766Z,16.88
2018-06-21T03:16:42.747Z,16.88
2018-06-21T03:17:42.727Z,16.88
2018-06-21T03:18:42.706Z,16.88
2018-06-21T03:19:42.684Z,16.88
2018-06-21T03:20:42.703Z,16.88
2018-06-21T03:21:42.647Z,22.50
2018-06-21T03:22:42.627Z,22.50
2018-06-21T03:23:42.605Z,22.50
2018-06-21T03:24:42.702Z,22.50
2018-06-21T03:25:42.566Z,22.50
2018-06-21T03:26:42.546Z,22.50
2018-06-21T03:27:42.525Z,22.50
2018-06-21T03:28:42.506Z,22.50
2018-06-21T03:29:42.485Z,22.50
2018-06-21T03:30:42.465Z,28.13
2018-06-21T03:31:42.447Z,28.13
2018-06-21T03:32:42.425Z,28.13
2018-06-21T03:33:42.406Z,28.13
2018-06-21T03:34:42.385Z,28.13
2018-06-21T03:35:42.367Z,28.13
2018-06-21T03:36:42.346Z,28.13
2018-06-21T03:37:42.328Z,28.13
2018-06-21T03:38:42.309Z,28.13
2018-06-21T03:39:42.289Z,33.75
2018-06-21T03:40:42.269Z,33.75
2018-06-21T03:41:42.248Z,33.75
2018-06-21T03:42:42.227Z,39.38
2018-06-21T03:43:42.208Z,39.38
2018-06-21T03:44:42.190Z,39.38
2018-06-21T03:45:42.172Z,39.38
2018-06-21T03:46:42.147Z,45.00
2018-06-21T03:47:42.129Z,45.00
2018-06-21T03:48:42.110Z,50.63
2018-06-21T03:49:42.091Z,50.63
2018-06-21T03:50:42.071Z,50.63
2018-06-21T03:51:42.052Z,50.63
2018-06-21T03:52:42.032Z,50.63
2018-06-21T03:53:42.013Z,50.63
2018-06-21T03:54:41.999Z,45.00
2018-06-21T03:55:41.973Z,45.00
2018-06-21T03:56:41.954Z,45.00
2018-06-21T03:57:41.937Z,45.00
2018-06-21T03:58:41.914Z,39.38
2018-06-21T03:59:41.900Z,45.00
2018-06-21T04:00:41.876Z,45.00
2018-06-21T04:01:41.857Z,45.00
2018-06-21T04:02:41.834Z,50.63
2018-06-21T04:03:41.820Z,50.63
2018-06-21T04:04:41.800Z,56.25
2018-06-21T04:05:41.779Z,67.50
2018-06-21T04:06:41.759Z,73.13
2018-06-21T04:07:41.740Z,84.38
2018-06-21T04:08:41.721Z,95.63
2018-06-21T04:09:41.702Z,101.25
2018-06-21T04:10:41.682Z,101.25
2018-06-21T04:11:41.664Z,106.88
2018-06-21T04:12:41.644Z,118.13
2018-06-21T04:13:41.628Z,123.75
2018-06-21T04:14:41.605Z,123.75
2018-06-21T04:15:41.586Z,129.38
2018-06-21T04:16:41.565Z,129.38
2018-06-21T04:17:41.549Z,123.75
2018-06-21T04:18:41.530Z,123.75
2018-06-21T04:19:41.512Z,123.75
2018-06-21T04:20:41.491Z,118.13
2018-06-21T04:21:41.476Z,123.75
2018-06-21T04:22:41.451Z,123.75
2018-06-21T04:23:41.442Z,123.75
2018-06-21T04:24:41.413Z,118.13
2018-06-21T04:25:41.395Z,112.50
2018-06-21T04:26:41.374Z,101.25
2018-06-21T04:27:41.356Z,95.63
2018-06-21T04:28:41.337Z,95.63
2018-06-21T04:29:41.322Z,95.63
2018-06-21T04:30:41.300Z,90.00
2018-06-21T04:31:41.279Z,95.63
2018-06-21T04:32:41.262Z,101.25
2018-06-21T04:33:41.242Z,118.13
2018-06-21T04:34:41.223Z,123.75
2018-06-21T04:35:41.209Z,129.38
2018-06-21T04:36:41.184Z,135.00
2018-06-21T04:37:41.165Z,135.00
2018-06-21T04:38:41.146Z,123.75
2018-06-21T04:39:41.164Z,112.50
2018-06-21T04:40:41.122Z,118.13
2018-06-21T04:41:41.090Z,123.75
2018-06-21T04:42:41.070Z,129.38
2018-06-21T04:43:41.053Z,129.38
2018-06-21T04:44:41.039Z,123.75
2018-06-21T04:45:41.016Z,118.13
2018-06-21T04:46:40.995Z,123.75
2018-06-21T04:47:40.977Z,123.75
2018-06-21T04:48:40.963Z,118.13
2018-06-21T04:49:40.938Z,106.88
2018-06-21T04:50:40.937Z,101.25
2018-06-21T04:51:40.977Z,90.00
2018-06-21T04:52:40.890Z,90.00
2018-06-21T04:53:40.860Z,95.63
2018-06-21T04:54:40.845Z,95.63
2018-06-21T04:55:40.827Z,95.63
2018-06-21T04:56:40.807Z,123.75
2018-06-21T04:57:40.789Z,135.00
2018-06-21T04:58:40.768Z,135.00
2018-06-21T04:59:40.750Z,106.88
2018-06-21T05:00:40.735Z,84.38
2018-06-21T05:01:40.710Z,67.50
2018-06-21T05:02:40.699Z,67.50
2018-06-21T05:03:40.676Z,56.25
2018-06-21T05:04:40.658Z,45.00
2018-06-21T05:05:40.640Z,56.25
2018-06-21T05:06:40.617Z,61.88
2018-06-21T05:07:40.600Z,61.88
2018-06-21T05:08:40.581Z,78.75
2018-06-21T05:09:40.564Z,78.75
2018-06-21T05:10:40.543Z,56.25
2018-06-21T05:11:40.520Z,39.38
2018-06-21T05:12:40.507Z,28.13
2018-06-21T05:13:40.503Z,16.88
2018-06-21T05:14:40.469Z,16.88
2018-06-21T05:15:40.450Z,16.88
2018-06-21T05:16:40.431Z,11.25
2018-06-21T05:17:40.412Z,11.25
2018-06-21T05:18:40.394Z,16.88
2018-06-21T05:19:40.376Z,61.88
2018-06-21T05:20:40.357Z,101.25
2018-06-21T05:21:40.337Z,84.38
2018-06-21T05:22:40.319Z,61.88
2018-06-21T05:23:40.299Z,50.63
2018-06-21T05:24:40.281Z,50.63
2018-06-21T05:25:40.260Z,33.75
2018-06-21T05:26:40.241Z,22.50
2018-06-21T05:27:40.220Z,22.50
2018-06-21T05:28:40.204Z,28.13
2018-06-21T05:29:40.192Z,33.75
2018-06-21T05:30:40.163Z,45.00
2018-06-21T05:31:40.147Z,39.38
2018-06-21T05:32:40.125Z,39.38
2018-06-21T05:33:40.106Z,45.00
2018-06-21T05:34:40.096Z,50.63
2018-06-21T05:35:40.065Z,50.63
2018-06-21T05:36:40.052Z,39.38
2018-06-21T05:37:40.040Z,39.38
2018-06-21T05:38:40.009Z,33.75
2018-06-21T05:39:39.987Z,39.38
2018-06-21T05:40:39.970Z,45.00
2018-06-21T05:41:39.948Z,56.25
2018-06-21T05:42:39.925Z,73.13
2018-06-21T05:43:39.907Z,84.38
2018-06-21T05:44:39.887Z,84.38
2018-06-21T05:45:39.868Z,84.38
2018-06-21T05:46:39.850Z,90.00
2018-06-21T05:47:39.830Z,95.63
2018-06-21T05:48:39.811Z,95.63
2018-06-21T05:49:39.789Z,106.88
2018-06-21T05:50:39.768Z,129.38
2018-06-21T05:51:39.753Z,168.75
2018-06-21T05:52:39.731Z,253.13
2018-06-21T05:53:39.710Z,360.00
2018-06-21T05:54:39.687Z,421.88
2018-06-21T05:55:39.666Z,410.63
2018-06-21T05:56:39.650Z,354.38
2018-06-21T05:57:39.631Z,264.38
2018-06-21T05:58:39.606Z,180.00
2018-06-21T05:59:39.586Z,174.38
2018-06-21T06:00:39.566Z,140.63
2018-06-21T06:01:39.548Z,101.25
2018-06-21T06:02:39.528Z,95.63
2018-06-21T06:03:39.508Z,73.13
2018-06-21T06:04:39.488Z,67.50
2018-06-21T06:05:39.473Z,78.75
2018-06-21T06:06:39.449Z,90.00
2018-06-21T06:07:39.431Z,90.00
2018-06-21T06:08:39.599Z,73.13
2018-06-21T06:09:39.387Z,78.75
2018-06-21T06:10:39.366Z,56.25
2018-06-21T06:11:39.346Z,39.38
2018-06-21T06:12:39.325Z,39.38
2018-06-21T06:13:39.307Z,50.63
2018-06-21T06:14:39.287Z,67.50
2018-06-21T06:15:39.265Z,67.50
2018-06-21T06:16:39.249Z,67.50
2018-06-21T06:17:39.230Z,78.75
2018-06-21T06:18:39.206Z,101.25
2018-06-21T06:19:39.188Z,112.50
2018-06-21T06:20:39.167Z,118.13
2018-06-21T06:21:39.146Z,118.13
2018-06-21T06:22:39.127Z,101.25
2018-06-21T06:23:39.112Z,118.13
2018-06-21T06:24:39.085Z,95.63
2018-06-21T06:25:39.064Z,90.00
2018-06-21T06:26:39.048Z,67.50
2018-06-21T06:27:39.024Z,73.13
2018-06-21T06:28:39.063Z,73.13
2018-06-21T06:29:38.980Z,73.13
2018-06-21T06:30:38.962Z,67.50
2018-06-21T06:31:38.940Z,61.88
2018-06-21T06:32:38.922Z,56.25
2018-06-21T06:33:38.903Z,61.88
2018-06-21T06:34:38.917Z,73.13
2018-06-21T06:35:38.860Z,73.13
2018-06-21T06:36:38.843Z,73.13
2018-06-21T06:37:38.820Z,84.38
2018-06-21T06:38:38.804Z,106.88
2018-06-21T06:39:38.782Z,112.50
2018-06-21T06:40:38.764Z,112.50
2018-06-21T06:41:38.737Z,135.00
2018-06-21T06:42:38.716Z,140.63
2018-06-21T06:43:38.695Z,129.38
2018-06-21T06:44:38.676Z,146.25
2018-06-21T06:45:38.656Z,146.25
2018-06-21T06:46:38.636Z,168.75
2018-06-21T06:47:38.617Z,202.50
2018-06-21T06:48:38.595Z,247.50
2018-06-21T06:49:38.577Z,298.13
2018-06-21T06:50:38.551Z,281.25
2018-06-21T06:51:38.532Z,213.75
2018-06-21T06:52:38.512Z,185.63
2018-06-21T06:53:38.486Z,174.38
2018-06-21T06:54:38.526Z,157.50
2018-06-21T06:55:38.450Z,129.38
2018-06-21T06:56:38.429Z,135.00
2018-06-21T06:57:38.413Z,123.75
2018-06-21T06:58:38.389Z,135.00
2018-06-21T06:59:38.367Z,118.13
2018-06-21T07:00:38.347Z,101.25
2018-06-21T07:01:38.334Z,106.88
2018-06-21T07:02:38.307Z,118.13
2018-06-21T07:03:38.286Z,135.00
2018-06-21T07:04:38.266Z,146.25
2018-06-21T07:05:38.249Z,225.00
2018-06-21T07:06:38.227Z,213.75
2018-06-21T07:07:38.211Z,135.00
2018-06-21T07:08:38.187Z,90.00
2018-06-21T07:09:38.169Z,90.00
2018-06-21T07:10:38.145Z,73.13
2018-06-21T07:11:38.171Z,67.50
2018-06-21T07:12:38.105Z,78.75
2018-06-21T07:13:38.089Z,95.63
2018-06-21T07:14:38.064Z,95.63
2018-06-21T07:15:38.044Z,78.75
2018-06-21T07:16:38.025Z,90.00
2018-06-21T07:17:38.003Z,101.25
2018-06-21T07:18:37.983Z,78.75
2018-06-21T07:19:37.964Z,61.88
2018-06-21T07:20:37.943Z,73.13
2018-06-21T07:21:37.922Z,101.25
2018-06-21T07:22:37.901Z,112.50
2018-06-21T07:23:37.883Z,90.00
2018-06-21T07:24:37.861Z,90.00
2018-06-21T07:25:37.840Z,112.50
2018-06-21T07:26:37.820Z,140.63
2018-06-21T07:27:37.800Z,129.38
2018-06-21T07:28:37.776Z,123.75
2018-06-21T07:29:37.760Z,146.25
2018-06-21T07:30:37.737Z,230.63
2018-06-21T07:31:37.722Z,348.75
2018-06-21T07:32:37.695Z,393.75
2018-06-21T07:33:37.715Z,495.00
2018-06-21T07:34:37.659Z,551.25
2018-06-21T07:35:37.637Z,601.88
2018-06-21T07:36:37.615Z,669.38
2018-06-21T07:37:37.596Z,686.25
2018-06-21T07:38:37.575Z,708.75
2018-06-21T07:39:37.573Z,725.63
2018-06-21T07:40:37.539Z,703.13
2018-06-21T07:41:37.517Z,613.13
2018-06-21T07:42:37.496Z,483.75
2018-06-21T07:43:37.475Z,303.75
2018-06-21T07:44:37.459Z,225.00
2018-06-21T07:45:37.432Z,247.50
2018-06-21T07:46:37.421Z,303.75
2018-06-21T07:47:37.396Z,399.38
2018-06-21T07:48:37.382Z,421.88
2018-06-21T07:49:37.359Z,360.00
2018-06-21T07:50:37.337Z,343.13
2018-06-21T07:51:37.320Z,354.38
2018-06-21T07:52:37.299Z,365.63
2018-06-21T07:53:37.279Z,376.88
2018-06-21T07:54:37.263Z,371.25
2018-06-21T07:55:37.241Z,382.50
2018-06-21T07:56:37.221Z,388.13
2018-06-21T07:57:37.201Z,376.88
2018-06-21T07:58:37.180Z,382.50
2018-06-21T07:59:37.160Z,472.50
2018-06-21T08:00:37.148Z,528.75
2018-06-21T08:01:37.124Z,568.13
2018-06-21T08:02:37.108Z,579.38
2018-06-21T08:03:37.083Z,596.25
2018-06-21T08:04:37.070Z,652.50
2018-06-21T08:05:37.044Z,748.13
2018-06-21T08:06:37.026Z,787.50
2018-06-21T08:07:37.003Z,804.38
2018-06-21T08:08:36.986Z,798.75
2018-06-21T08:09:36.972Z,748.13
2018-06-21T08:10:36.946Z,703.13
2018-06-21T08:11:36.928Z,641.25
2018-06-21T08:12:36.908Z,641.25
2018-06-21T08:13:36.891Z,691.88
2018-06-21T08:14:36.869Z,759.38
2018-06-21T08:15:36.852Z,860.63
2018-06-21T08:16:36.831Z,821.25
2018-06-21T08:17:36.813Z,770.63
2018-06-21T08:18:36.796Z,748.13
2018-06-21T08:19:36.776Z,607.50
2018-06-21T08:20:36.758Z,562.50
2018-06-21T08:21:36.739Z,596.25
2018-06-21T08:22:36.720Z,652.50
2018-06-21T08:23:36.702Z,607.50
2018-06-21T08:24:36.682Z,838.13
2018-06-21T08:25:36.666Z,838.13
2018-06-21T08:26:36.647Z,759.38
2018-06-21T08:27:36.628Z,720.00
2018-06-21T08:28:36.609Z,528.75
2018-06-21T08:29:36.593Z,455.63
2018-06-21T08:30:36.574Z,455.63
2018-06-21T08:31:36.554Z,590.63
2018-06-21T08:32:36.532Z,753.75
2018-06-21T08:33:36.523Z,832.50
2018-06-21T08:34:36.500Z,826.88
2018-06-21T08:35:36.483Z,765.00
2018-06-21T08:36:36.458Z,703.13
2018-06-21T08:37:36.448Z,759.38
2018-06-21T08:38:36.428Z,770.63
2018-06-21T08:39:36.411Z,708.75
2018-06-21T08:40:36.393Z,922.50
2018-06-21T08:41:36.374Z,866.25
2018-06-21T08:42:36.355Z,1198.13
2018-06-21T08:43:36.337Z,1310.63
2018-06-21T08:44:36.321Z,956.25
2018-06-21T08:45:36.302Z,742.50
2018-06-21T08:46:36.282Z,511.88
2018-06-21T08:47:36.265Z,472.50
2018-06-21T08:48:36.248Z,523.13
2018-06-21T08:49:36.230Z,579.38
2018-06-21T08:50:36.213Z,725.63
2018-06-21T08:51:36.195Z,810.00
2018-06-21T08:52:36.179Z,849.38
2018-06-21T08:53:36.162Z,787.50
2018-06-21T08:54:36.144Z,939.38
2018-06-21T08:55:36.125Z,1006.88
2018-06-21T08:56:36.107Z,860.63
2018-06-21T08:57:36.091Z,888.75
2018-06-21T08:58:36.073Z,843.75
2018-06-21T08:59:36.055Z,1046.25
2018-06-21T09:00:36.038Z,1080.00
2018-06-21T09:01:36.025Z,1074.38
2018-06-21T09:02:36.004Z,1006.88
2018-06-21T09:03:35.988Z,1080.00
2018-06-21T09:04:35.973Z,1085.63
2018-06-21T09:05:35.954Z,1096.88
2018-06-21T09:06:35.937Z,1023.75
2018-06-21T09:07:35.924Z,1276.88
2018-06-21T09:08:35.904Z,1085.63
2018-06-21T09:09:35.948Z,1046.25
2018-06-21T09:10:35.872Z,1243.13
2018-06-21T09:11:35.894Z,1406.25
2018-06-21T09:12:35.840Z,1361.25
2018-06-21T09:13:35.828Z,1310.63
2018-06-21T09:14:35.807Z,1231.88
2018-06-21T09:15:35.790Z,1175.63
2018-06-21T09:16:35.778Z,1158.75
2018-06-21T09:17:35.762Z,1192.50
2018-06-21T09:18:35.742Z,1096.88
2018-06-21T09:19:35.726Z,1012.50
2018-06-21T09:20:35.711Z,781.88
2018-06-21T09:21:35.695Z,450.00
2018-06-21T09:22:35.682Z,281.25
2018-06-21T09:23:35.672Z,208.13
2018-06-21T09:24:35.651Z,146.25
2018-06-21T09:25:35.629Z,106.88
2018-06-21T09:26:35.617Z,84.38
2018-06-21T09:27:35.600Z,118.13
2018-06-21T09:28:35.579Z,129.38
2018-06-21T09:29:35.565Z,140.63
2018-06-21T09:30:35.546Z,157.50
2018-06-21T09:31:35.529Z,174.38
2018-06-21T09:32:35.515Z,202.50
2018-06-21T09:33:35.495Z,241.88
2018-06-21T09:34:35.476Z,286.88
2018-06-21T09:35:35.459Z,354.38
2018-06-21T09:36:35.442Z,461.25
2018-06-21T09:37:35.420Z,562.50
2018-06-21T09:38:35.401Z,590.63
2018-06-21T09:39:35.386Z,1018.13
2018-06-21T09:40:35.364Z,984.38
2018-06-21T09:41:35.345Z,2053.13
2018-06-21T09:42:35.323Z,2019.38
2018-06-21T09:43:35.305Z,2098.13
2018-06-21T09:44:35.286Z,2131.88
2018-06-21T09:45:35.266Z,2036.25
2018-06-21T09:46:35.249Z,2272.50
2018-06-21T09:47:35.233Z,2311.88
2018-06-21T09:48:35.215Z,2300.63
2018-06-21T09:49:35.196Z,2306.25
2018-06-21T09:50:35.175Z,2407.50
2018-06-21T09:51:35.158Z,2463.75
2018-06-21T09:52:35.203Z,2435.63
2018-06-21T09:53:35.124Z,2463.75
2018-06-21T09:54:35.108Z,2435.63
2018-06-21T09:55:35.090Z,2356.88
2018-06-21T09:56:35.076Z,2283.75
2018-06-21T09:57:35.094Z,2120.63
2018-06-21T09:58:35.040Z,1186.88
2018-06-21T09:59:35.025Z,1828.13
2018-06-21T10:00:35.011Z,1901.25
2018-06-21T10:01:34.994Z,1968.75
2018-06-21T10:02:34.979Z,877.50
2018-06-21T10:03:34.961Z,1873.13
2018-06-21T10:04:34.945Z,759.38
2018-06-21T10:05:34.931Z,765.00
2018-06-21T10:06:34.920Z,691.88
2018-06-21T10:07:34.901Z,849.38
2018-06-21T10:08:34.888Z,1282.50
2018-06-21T10:09:34.873Z,1698.75
2018-06-21T10:10:34.853Z,1636.88
2018-06-21T10:11:34.841Z,601.88
2018-06-21T10:12:34.825Z,703.13
2018-06-21T10:13:34.815Z,1490.63
2018-06-21T10:14:34.795Z,1440.00
2018-06-21T10:15:34.779Z,1406.25
2018-06-21T10:16:34.766Z,1372.50
2018-06-21T10:17:34.751Z,1366.88
2018-06-21T10:18:34.749Z,1389.38
2018-06-21T10:19:34.721Z,1411.88
2018-06-21T10:20:34.739Z,1417.50
2018-06-21T10:21:34.692Z,1468.13
2018-06-21T10:22:34.678Z,1552.50
2018-06-21T10:23:34.663Z,556.88
2018-06-21T10:24:34.652Z,1485.00
2018-06-21T10:25:34.636Z,1541.25
2018-06-21T10:26:34.624Z,1569.38
2018-06-21T10:27:34.609Z,765.00
2018-06-21T10:28:34.594Z,793.13
2018-06-21T10:29:34.574Z,1305.00
2018-06-21T10:30:34.567Z,669.38
2018-06-21T10:31:34.554Z,697.50
2018-06-21T10:32:34.539Z,793.13
2018-06-21T10:33:34.526Z,849.38
2018-06-21T10:34:34.510Z,793.13
2018-06-21T10:35:34.495Z,1130.63
2018-06-21T10:36:34.488Z,1096.88
2018-06-21T10:37:34.468Z,1755.00
2018-06-21T10:38:34.454Z,1074.38
2018-06-21T10:39:34.435Z,961.88
2018-06-21T10:40:34.424Z,990.00
2018-06-21T10:41:34.408Z,883.13
2018-06-21T10:42:34.397Z,776.25
2018-06-21T10:43:34.379Z,1136.25
2018-06-21T10:44:34.363Z,1040.63
2018-06-21T10:45:34.346Z,995.63
2018-06-21T10:46:34.333Z,933.75
2018-06-21T10:47:34.318Z,967.50
2018-06-21T10:48:34.305Z,978.75
2018-06-21T10:49:34.287Z,990.00
2018-06-21T10:50:34.272Z,984.38
2018-06-21T10:51:34.259Z,1001.25
2018-06-21T10:52:34.244Z,1051.88
2018-06-21T10:53:34.232Z,1153.13
2018-06-21T10:54:34.217Z,1276.88
2018-06-21T10:55:34.201Z,1327.50
2018-06-21T10:56:34.191Z,781.88
2018-06-21T10:57:34.177Z,843.75
2018-06-21T10:58:34.163Z,860.63
2018-06-21T10:59:34.149Z,832.50
2018-06-21T11:00:34.136Z,1231.88
2018-06-21T11:01:34.128Z,714.38
2018-06-21T11:02:34.116Z,680.63
2018-06-21T11:03:34.096Z,1074.38
2018-06-21T11:04:34.085Z,1141.88
2018-06-21T11:05:34.073Z,765.00
2018-06-21T11:06:34.060Z,1029.38
2018-06-21T11:07:34.043Z,1158.75
2018-06-21T11:08:34.046Z,1164.38
2018-06-21T11:09:34.017Z,1186.88
2018-06-21T11:10:34.004Z,1220.63
2018-06-21T11:11:33.988Z,1186.88
2018-06-21T11:12:33.977Z,1237.50
2018-06-21T11:13:33.963Z,1361.25
2018-06-21T11:14:33.950Z,1456.88
2018-06-21T11:15:33.941Z,1507.50
2018-06-21T11:16:33.924Z,1625.63
2018-06-21T11:17:33.914Z,1687.50
2018-06-21T11:18:33.904Z,1642.50
2018-06-21T11:19:33.892Z,1068.75
2018-06-21T11:20:33.880Z,1445.63
2018-06-21T11:21:33.867Z,1445.63
2018-06-21T11:22:33.856Z,765.00
2018-06-21T11:23:33.846Z,770.63
2018-06-21T11:24:33.835Z,821.25
2018-06-21T11:25:33.822Z,720.00
2018-06-21T11:26:33.808Z,630.00
2018-06-21T11:27:33.800Z,663.75
2018-06-21T11:28:33.786Z,596.25
2018-06-21T11:29:33.772Z,1147.50
2018-06-21T11:30:33.757Z,1136.25
2018-06-21T11:31:33.745Z,1153.13
2018-06-21T11:32:33.730Z,1147.50
2018-06-21T11:33:33.718Z,1170.00
2018-06-21T11:34:33.705Z,1226.25
2018-06-21T11:35:33.694Z,1282.50
2018-06-21T11:36:33.682Z,1305.00
2018-06-21T11:37:33.667Z,1001.25
2018-06-21T11:38:33.655Z,1220.63
2018-06-21T11:39:33.642Z,1209.38
2018-06-21T11:40:33.632Z,1220.63
2018-06-21T11:41:33.622Z,1293.75
2018-06-21T11:42:33.611Z,1400.63
2018-06-21T11:43:33.600Z,1597.50
2018-06-21T11:44:33.589Z,793.13
2018-06-21T11:45:33.576Z,1845.00
2018-06-21T11:46:33.567Z,652.50
2018-06-21T11:47:33.556Z,2086.88
2018-06-21T11:48:33.544Z,2289.38
2018-06-21T11:49:33.538Z,2536.88
2018-06-21T11:50:33.523Z,2829.38
2018-06-21T11:51:33.512Z,2970.00
2018-06-21T11:52:33.505Z,2992.50
2018-06-21T11:53:33.495Z,3121.88
2018-06-21T11:54:33.734Z,3251.25
2018-06-21T11:55:33.473Z,3273.75
2018-06-21T11:56:33.464Z,3223.13
2018-06-21T11:57:33.461Z,3273.75
2018-06-21T11:58:33.448Z,3403.13
2018-06-21T11:59:33.439Z,3318.75
2018-06-21T12:00:33.427Z,832.50
2018-06-21T12:01:33.421Z,843.75
2018-06-21T12:02:33.407Z,3538.13
2018-06-21T12:03:33.438Z,1074.38
2018-06-21T12:04:33.437Z,703.13
2018-06-21T12:05:33.379Z,720.00
2018-06-21T12:06:33.368Z,3414.38
2018-06-21T12:07:33.360Z,731.25
2018-06-21T12:08:33.350Z,3448.13
2018-06-21T12:09:33.337Z,3386.25
2018-06-21T12:10:33.326Z,2958.75
2018-06-21T12:11:33.317Z,3110.63
2018-06-21T12:12:33.307Z,1445.63
2018-06-21T12:13:33.294Z,3420.00
2018-06-21T12:14:33.283Z,3425.63
2018-06-21T12:15:33.273Z,3352.50
2018-06-21T12:16:33.263Z,3375.00
2018-06-21T12:17:33.254Z,3504.38
2018-06-21T12:18:33.244Z,826.88
2018-06-21T12:19:33.232Z,3825.00
2018-06-21T12:20:33.223Z,3830.63
2018-06-21T12:21:33.213Z,3903.75
2018-06-21T12:22:33.203Z,3076.88
2018-06-21T12:23:33.193Z,1012.50
2018-06-21T12:24:33.183Z,3892.50
2018-06-21T12:25:33.171Z,3785.63
2018-06-21T12:26:33.164Z,3453.75
2018-06-21T12:27:33.178Z,2373.75
2018-06-21T12:28:33.154Z,1203.75
2018-06-21T12:29:33.136Z,832.50
2018-06-21T12:30:33.133Z,1288.13
2018-06-21T12:31:33.114Z,1243.13
2018-06-21T12:32:33.150Z,1260.00
2018-06-21T12:33:33.097Z,1175.63
2018-06-21T12:34:33.081Z,1153.13
2018-06-21T12:35:33.078Z,1119.38
2018-06-21T12:36:33.068Z,1068.75
2018-06-21T12:37:33.060Z,1018.13
2018-06-21T12:38:33.055Z,978.75
2018-06-21T12:39:33.037Z,990.00
2018-06-21T12:40:33.031Z,1018.13
2018-06-21T12:41:33.022Z,1057.50
2018-06-21T12:42:33.012Z,1102.50
2018-06-21T12:43:33.063Z,1147.50
2018-06-21T12:44:32.998Z,1203.75
2018-06-21T12:45:32.988Z,1411.88
2018-06-21T12:46:32.997Z,2548.13
2018-06-21T12:47:32.970Z,3600.00
2018-06-21T12:48:32.965Z,877.50
2018-06-21T12:49:32.951Z,3521.25
2018-06-21T12:50:32.941Z,3999.38
2018-06-21T12:51:32.934Z,4010.63
2018-06-21T12:52:32.959Z,3920.63
2018-06-21T12:53:32.917Z,4027.50
2018-06-21T12:54:32.911Z,4044.38
2018-06-21T12:55:32.899Z,3999.38
2018-06-21T12:56:32.891Z,4140.00
2018-06-21T12:57:32.883Z,4072.50
2018-06-21T12:58:32.874Z,922.50
2018-06-21T12:59:32.866Z,4106.25
2018-06-21T13:00:32.859Z,4235.63
2018-06-21T13:01:32.849Z,4235.63
2018-06-21T13:02:32.837Z,826.88
2018-06-21T13:03:32.836Z,1305.00
2018-06-21T13:04:32.827Z,4089.38
2018-06-21T13:05:32.822Z,3729.38
2018-06-21T13:06:32.808Z,3825.00
2018-06-21T13:07:32.805Z,4005.00
2018-06-21T13:08:32.793Z,4078.13
2018-06-21T13:09:32.787Z,4106.25
2018-06-21T13:10:32.777Z,4224.38
2018-06-21T13:11:32.769Z,4404.38
2018-06-21T13:12:32.764Z,4365.00
2018-06-21T13:13:32.753Z,4387.50
2018-06-21T13:14:32.746Z,3037.50
2018-06-21T13:15:32.764Z,4376.25
2018-06-21T13:16:32.729Z,1816.88
2018-06-21T13:17:32.718Z,4145.63
2018-06-21T13:18:32.713Z,4162.50
2018-06-21T13:19:32.704Z,4342.50
2018-06-21T13:20:32.751Z,4246.88
2018-06-21T13:21:32.690Z,4291.88
2018-06-21T13:22:32.680Z,4618.13
2018-06-21T13:23:32.676Z,4511.25
2018-06-21T13:24:32.668Z,4516.88
2018-06-21T13:25:32.658Z,4348.13
2018-06-21T13:26:32.649Z,4314.38
2018-06-21T13:27:32.644Z,4533.75
2018-06-21T13:28:32.633Z,4567.50
2018-06-21T13:29:32.625Z,4741.88
2018-06-21T13:30:32.617Z,4426.88
2018-06-21T13:31:32.610Z,4494.38
2018-06-21T13:32:32.602Z,4483.13
2018-06-21T13:33:32.595Z,4269.38
2018-06-21T13:34:32.592Z,4522.50
2018-06-21T13:35:32.579Z,4353.75
2018-06-21T13:36:32.575Z,4314.38
2018-06-21T13:37:32.561Z,4426.88
2018-06-21T13:38:32.555Z,4674.38
2018-06-21T13:39:32.547Z,4629.38
2018-06-21T13:40:32.539Z,4725.00
2018-06-21T13:41:32.534Z,2272.50
2018-06-21T13:42:32.527Z,4696.88
2018-06-21T13:43:32.517Z,2913.75
2018-06-21T13:44:32.512Z,4927.50
2018-06-21T13:45:32.507Z,4876.88
2018-06-21T13:46:32.495Z,1248.75
2018-06-21T13:47:32.496Z,978.75
2018-06-21T13:48:32.481Z,4961.25
2018-06-21T13:49:32.472Z,5158.13
2018-06-21T13:50:32.463Z,5163.75
2018-06-21T13:51:32.461Z,5017.50
2018-06-21T13:52:32.448Z,4955.63
2018-06-21T13:53:32.440Z,3318.75
2018-06-21T13:54:32.458Z,1080.00
2018-06-21T13:55:32.425Z,4657.50
2018-06-21T13:56:32.417Z,4837.50
2018-06-21T13:57:32.408Z,5006.25
2018-06-21T13:58:32.397Z,4989.38
2018-06-21T13:59:32.391Z,4955.63
2018-06-21T14:00:32.412Z,4831.88
2018-06-21T14:01:32.374Z,4668.75
2018-06-21T14:02:32.365Z,838.13
2018-06-21T14:03:32.356Z,4747.50
2018-06-21T14:04:32.348Z,4809.38
2018-06-21T14:05:32.345Z,4916.25
2018-06-21T14:06:32.331Z,4792.50
2018-06-21T14:07:32.344Z,4629.38
2018-06-21T14:08:32.566Z,4483.13
2018-06-21T14:09:32.307Z,4674.38
2018-06-21T14:10:32.300Z,4798.13
2018-06-21T14:11:32.291Z,4691.25
2018-06-21T14:12:32.288Z,4792.50
2018-06-21T14:13:32.278Z,4753.13
2018-06-21T14:14:32.266Z,4848.75
2018-06-21T14:15:32.260Z,4651.88
2018-06-21T14:16:32.251Z,4815.00
2018-06-21T14:17:32.244Z,4753.13
2018-06-21T14:18:32.238Z,4578.75
2018-06-21T14:19:32.229Z,4719.38
2018-06-21T14:20:32.237Z,4494.38
2018-06-21T14:21:32.214Z,4303.13
2018-06-21T14:22:32.210Z,4258.13
2018-06-21T14:23:32.232Z,4213.13
2018-06-21T14:24:32.196Z,4494.38
2018-06-21T14:25:32.185Z,4972.50
2018-06-21T14:26:32.184Z,5208.75
2018-06-21T14:27:32.170Z,5242.50
2018-06-21T14:28:32.164Z,1766.25
2018-06-21T14:29:32.157Z,5141.25
2018-06-21T14:30:32.148Z,5079.38
2018-06-21T14:31:32.137Z,5034.38
2018-06-21T14:32:32.131Z,5068.13
2018-06-21T14:33:32.125Z,2750.63
2018-06-21T14:34:32.116Z,5107.50
2018-06-21T14:35:32.108Z,1046.25
2018-06-21T14:36:32.101Z,1260.00
2018-06-21T14:37:32.091Z,1957.50
2018-06-21T14:38:32.082Z,1721.25
2018-06-21T14:39:32.075Z,5287.50
2018-06-21T14:40:32.065Z,5326.88
2018-06-21T14:41:32.060Z,826.88
2018-06-21T14:42:32.050Z,793.13
2018-06-21T14:43:32.038Z,894.38
2018-06-21T14:44:32.029Z,1091.25
2018-06-21T14:45:32.016Z,1771.88
2018-06-21T14:46:32.006Z,4860.00
2018-06-21T14:47:31.995Z,4758.75
2018-06-21T14:48:31.983Z,4871.25
2018-06-21T14:49:31.974Z,4725.00
2018-06-21T14:50:31.962Z,4713.75
2018-06-21T14:51:31.953Z,4950.00
2018-06-21T14:52:31.941Z,3712.50
2018-06-21T14:53:31.939Z,3268.13
2018-06-21T14:54:31.923Z,1755.00
2018-06-21T14:55:31.912Z,1406.25
2018-06-21T14:56:31.904Z,1102.50
2018-06-21T14:57:31.892Z,708.75
2018-06-21T14:58:31.884Z,590.63
2018-06-21T14:59:31.873Z,540.00
2018-06-21T15:00:31.868Z,568.13
2018-06-21T15:01:31.857Z,736.88
2018-06-21T15:02:31.841Z,871.88
2018-06-21T15:03:31.825Z,770.63
2018-06-21T15:04:31.815Z,753.75
2018-06-21T15:05:31.803Z,832.50
2018-06-21T15:06:31.791Z,905.63
2018-06-21T15:07:31.775Z,939.38
2018-06-21T15:08:31.764Z,1333.13
2018-06-21T15:09:31.751Z,1164.38
2018-06-21T15:10:31.743Z,1029.38
2018-06-21T15:11:31.723Z,922.50
2018-06-21T15:12:31.708Z,843.75
2018-06-21T15:13:31.696Z,753.75
2018-06-21T15:14:31.693Z,675.00
2018-06-21T15:15:31.664Z,624.38
2018-06-21T15:16:31.649Z,579.38